sensor_id;sensor_type;location;lat;lon;timestamp;pressure;altitude;pressure_sealevel;temperature
10598;BMP180;5346;48.766;8.674;2022-09-03T00:01:36;93800.00;;;16.30
10598;BMP180;5346;48.766;8.674;2022-09-03T00:04:37;93794.00;;;16.30
10598;BMP180;5346;48.766;8.674;2022-09-03T00:07:19;93787.00;;;16.30
10598;BMP180;5346;48.766;8.674;2022-09-03T00:09:59;93797.00;;;16.30
10598;BMP180;5346;48.766;8.674;2022-09-03T00:12:32;93787.00;;;16.30
10598;BMP180;5346;48.766;8.674;2022-09-03T00:15:11;93792.00;;;16.30
10598;BMP180;5346;48.766;8.674;2022-09-03T00:17:46;93792.00;;;16.30
10598;BMP180;5346;48.766;8.674;2022-09-03T00:20:40;93789.00;;;16.20
10598;BMP180;5346;48.766;8.674;2022-09-03T00:23:24;93792.00;;;16.30
10598;BMP180;5346;48.766;8.674;2022-09-03T00:28:50;93789.00;;;16.30
10598;BMP180;5346;48.766;8.674;2022-09-03T00:31:32;93785.00;;;16.20
10598;BMP180;5346;48.766;8.674;2022-09-03T00:34:24;93786.00;;;16.20
10598;BMP180;5346;48.766;8.674;2022-09-03T00:37:00;93785.00;;;16.30
10598;BMP180;5346;48.766;8.674;2022-09-03T00:39:29;93783.00;;;16.30
10598;BMP180;5346;48.766;8.674;2022-09-03T00:45:10;93785.00;;;16.20
10598;BMP180;5346;48.766;8.674;2022-09-03T00:48:01;93783.00;;;16.20
10598;BMP180;5346;48.766;8.674;2022-09-03T00:53:43;93790.00;;;16.20
10598;BMP180;5346;48.766;8.674;2022-09-03T00:56:38;93792.00;;;16.20
10598;BMP180;5346;48.766;8.674;2022-09-03T01:02:02;93793.00;;;16.20
10598;BMP180;5346;48.766;8.674;2022-09-03T01:04:41;93790.00;;;16.10
10598;BMP180;5346;48.766;8.674;2022-09-03T01:10:29;93784.00;;;16.10
10598;BMP180;5346;48.766;8.674;2022-09-03T01:29:46;93772.00;;;16.00
10598;BMP180;5346;48.766;8.674;2022-09-03T01:32:26;93779.00;;;16.00
10598;BMP180;5346;48.766;8.674;2022-09-03T02:00:08;93792.00;;;15.90
10598;BMP180;5346;48.766;8.674;2022-09-03T02:02:39;93785.00;;;16.00
10598;BMP180;5346;48.766;8.674;2022-09-03T02:07:47;93782.00;;;15.90
10598;BMP180;5346;48.766;8.674;2022-09-03T02:13:23;93786.00;;;16.00
10598;BMP180;5346;48.766;8.674;2022-09-03T02:16:11;93783.00;;;15.90
10598;BMP180;5346;48.766;8.674;2022-09-03T02:18:46;93779.00;;;16.00
10598;BMP180;5346;48.766;8.674;2022-09-03T02:21:22;93780.00;;;16.00
10598;BMP180;5346;48.766;8.674;2022-09-03T02:23:57;93771.00;;;15.90
10598;BMP180;5346;48.766;8.674;2022-09-03T02:26:31;93772.00;;;15.90
10598;BMP180;5346;48.766;8.674;2022-09-03T02:28:58;93775.00;;;15.80
10598;BMP180;5346;48.766;8.674;2022-09-03T02:31:27;93775.00;;;15.90
10598;BMP180;5346;48.766;8.674;2022-09-03T02:34:01;93776.00;;;15.90
10598;BMP180;5346;48.766;8.674;2022-09-03T02:36:32;93774.00;;;16.00
10598;BMP180;5346;48.766;8.674;2022-09-03T02:39:08;93775.00;;;16.00
10598;BMP180;5346;48.766;8.674;2022-09-03T02:41:35;93777.00;;;16.00
10598;BMP180;5346;48.766;8.674;2022-09-03T02:44:28;93779.00;;;16.00
10598;BMP180;5346;48.766;8.674;2022-09-03T02:47:06;93780.00;;;16.00
10598;BMP180;5346;48.766;8.674;2022-09-03T02:49:34;93783.00;;;15.90
10598;BMP180;5346;48.766;8.674;2022-09-03T02:52:05;93784.00;;;15.90
10598;BMP180;5346;48.766;8.674;2022-09-03T02:54:42;93786.00;;;15.90
10598;BMP180;5346;48.766;8.674;2022-09-03T02:57:14;93785.00;;;15.90
10598;BMP180;5346;48.766;8.674;2022-09-03T02:59:42;93788.00;;;15.80
10598;BMP180;5346;48.766;8.674;2022-09-03T03:02:19;93789.00;;;15.70
10598;BMP180;5346;48.766;8.674;2022-09-03T03:04:46;93788.00;;;15.80
10598;BMP180;5346;48.766;8.674;2022-09-03T03:07:14;93792.00;;;15.70
10598;BMP180;5346;48.766;8.674;2022-09-03T03:09:48;93785.00;;;15.70
10598;BMP180;5346;48.766;8.674;2022-09-03T03:12:16;93776.00;;;15.60
10598;BMP180;5346;48.766;8.674;2022-09-03T03:14:43;93785.00;;;15.70
10598;BMP180;5346;48.766;8.674;2022-09-03T03:17:19;93783.00;;;15.60
10598;BMP180;5346;48.766;8.674;2022-09-03T03:19:52;93789.00;;;15.40
10598;BMP180;5346;48.766;8.674;2022-09-03T03:22:34;93779.00;;;15.30
10598;BMP180;5346;48.766;8.674;2022-09-03T03:25:01;93780.00;;;15.30
10598;BMP180;5346;48.766;8.674;2022-09-03T03:27:29;93777.00;;;15.40
10598;BMP180;5346;48.766;8.674;2022-09-03T03:30:03;93776.00;;;15.40
10598;BMP180;5346;48.766;8.674;2022-09-03T03:32:31;93771.00;;;15.40
10598;BMP180;5346;48.766;8.674;2022-09-03T03:35:00;93778.00;;;15.40
10598;BMP180;5346;48.766;8.674;2022-09-03T03:37:35;93778.00;;;15.40
10598;BMP180;5346;48.766;8.674;2022-09-03T03:40:03;93783.00;;;15.50
10598;BMP180;5346;48.766;8.674;2022-09-03T03:42:32;93777.00;;;15.60
10598;BMP180;5346;48.766;8.674;2022-09-03T03:45:07;93787.00;;;15.40
10598;BMP180;5346;48.766;8.674;2022-09-03T03:47:36;93789.00;;;15.20
10598;BMP180;5346;48.766;8.674;2022-09-03T03:50:04;93795.00;;;15.10
10598;BMP180;5346;48.766;8.674;2022-09-03T03:52:39;93796.00;;;15.00
10598;BMP180;5346;48.766;8.674;2022-09-03T03:55:07;93790.00;;;15.10
10598;BMP180;5346;48.766;8.674;2022-09-03T03:57:34;93799.00;;;15.10
10598;BMP180;5346;48.766;8.674;2022-09-03T04:00:09;93801.00;;;15.00
10598;BMP180;5346;48.766;8.674;2022-09-03T04:02:37;93799.00;;;15.00
10598;BMP180;5346;48.766;8.674;2022-09-03T04:05:05;93809.00;;;15.00
10598;BMP180;5346;48.766;8.674;2022-09-03T04:07:40;93803.00;;;15.00
10598;BMP180;5346;48.766;8.674;2022-09-03T04:10:08;93806.00;;;14.90
10598;BMP180;5346;48.766;8.674;2022-09-03T04:12:35;93799.00;;;15.00
10598;BMP180;5346;48.766;8.674;2022-09-03T04:15:10;93797.00;;;15.10
10598;BMP180;5346;48.766;8.674;2022-09-03T04:17:38;93799.00;;;15.10
10598;BMP180;5346;48.766;8.674;2022-09-03T04:20:06;93799.00;;;15.10
10598;BMP180;5346;48.766;8.674;2022-09-03T04:22:40;93793.00;;;15.20
10598;BMP180;5346;48.766;8.674;2022-09-03T04:25:07;93796.00;;;15.20
10598;BMP180;5346;48.766;8.674;2022-09-03T04:27:43;93790.00;;;15.20
10598;BMP180;5346;48.766;8.674;2022-09-03T04:30:17;93793.00;;;15.20
10598;BMP180;5346;48.766;8.674;2022-09-03T04:32:50;93794.00;;;15.20
10598;BMP180;5346;48.766;8.674;2022-09-03T04:35:27;93795.00;;;15.10
10598;BMP180;5346;48.766;8.674;2022-09-03T04:37:57;93790.00;;;15.20
10598;BMP180;5346;48.766;8.674;2022-09-03T04:40:24;93791.00;;;15.20
10598;BMP180;5346;48.766;8.674;2022-09-03T04:42:59;93794.00;;;15.10
10598;BMP180;5346;48.766;8.674;2022-09-03T04:45:27;93796.00;;;15.10
10598;BMP180;5346;48.766;8.674;2022-09-03T04:50:31;93804.00;;;15.10
10598;BMP180;5346;48.766;8.674;2022-09-03T04:53:04;93810.00;;;15.20
10598;BMP180;5346;48.766;8.674;2022-09-03T04:55:38;93806.00;;;15.20
10598;BMP180;5346;48.766;8.674;2022-09-03T04:58:05;93801.00;;;15.20
10598;BMP180;5346;48.766;8.674;2022-09-03T05:00:36;93793.00;;;15.20
10598;BMP180;5346;48.766;8.674;2022-09-03T05:03:10;93812.00;;;15.30
10598;BMP180;5346;48.766;8.674;2022-09-03T05:05:37;93810.00;;;15.30
10598;BMP180;5346;48.766;8.674;2022-09-03T05:08:05;93806.00;;;15.30
10598;BMP180;5346;48.766;8.674;2022-09-03T05:10:39;93805.00;;;15.30
10598;BMP180;5346;48.766;8.674;2022-09-03T05:13:06;93801.00;;;15.30
10598;BMP180;5346;48.766;8.674;2022-09-03T05:15:34;93803.00;;;15.30
10598;BMP180;5346;48.766;8.674;2022-09-03T05:18:08;93814.00;;;15.40
10598;BMP180;5346;48.766;8.674;2022-09-03T05:20:44;93807.00;;;15.40
10598;BMP180;5346;48.766;8.674;2022-09-03T05:23:19;93799.00;;;15.50
10598;BMP180;5346;48.766;8.674;2022-09-03T05:26:09;93803.00;;;15.50
10598;BMP180;5346;48.766;8.674;2022-09-03T05:28:44;93807.00;;;15.60
10598;BMP180;5346;48.766;8.674;2022-09-03T05:33:46;93805.00;;;15.90
10598;BMP180;5346;48.766;8.674;2022-09-03T05:36:22;93810.00;;;15.90
10598;BMP180;5346;48.766;8.674;2022-09-03T05:38:50;93817.00;;;15.90
10598;BMP180;5346;48.766;8.674;2022-09-03T05:41:21;93814.00;;;15.80
10598;BMP180;5346;48.766;8.674;2022-09-03T05:43:56;93817.00;;;15.80
10598;BMP180;5346;48.766;8.674;2022-09-03T05:46:29;93818.00;;;15.90
10598;BMP180;5346;48.766;8.674;2022-09-03T05:49:06;93816.00;;;16.00
10598;BMP180;5346;48.766;8.674;2022-09-03T05:51:36;93819.00;;;16.00
10598;BMP180;5346;48.766;8.674;2022-09-03T05:54:09;93822.00;;;16.00
10598;BMP180;5346;48.766;8.674;2022-09-03T05:56:44;93811.00;;;16.10
10598;BMP180;5346;48.766;8.674;2022-09-03T05:59:11;93822.00;;;16.00
10598;BMP180;5346;48.766;8.674;2022-09-03T06:01:44;93814.00;;;16.20
10598;BMP180;5346;48.766;8.674;2022-09-03T06:04:26;93819.00;;;16.20
10598;BMP180;5346;48.766;8.674;2022-09-03T06:07:02;93823.00;;;16.20
10598;BMP180;5346;48.766;8.674;2022-09-03T06:09:49;93827.00;;;16.20
10598;BMP180;5346;48.766;8.674;2022-09-03T06:12:20;93830.00;;;16.30
10598;BMP180;5346;48.766;8.674;2022-09-03T06:14:54;93821.00;;;16.30
10598;BMP180;5346;48.766;8.674;2022-09-03T06:17:22;93823.00;;;16.30
10598;BMP180;5346;48.766;8.674;2022-09-03T06:19:50;93831.00;;;16.10
10598;BMP180;5346;48.766;8.674;2022-09-03T06:22:27;93835.00;;;16.10
10598;BMP180;5346;48.766;8.674;2022-09-03T06:25:01;93837.00;;;16.10
10598;BMP180;5346;48.766;8.674;2022-09-03T06:27:35;93834.00;;;16.20
10598;BMP180;5346;48.766;8.674;2022-09-03T06:30:03;93832.00;;;16.20
10598;BMP180;5346;48.766;8.674;2022-09-03T06:32:32;93841.00;;;16.20
10598;BMP180;5346;48.766;8.674;2022-09-03T06:35:06;93838.00;;;16.10
10598;BMP180;5346;48.766;8.674;2022-09-03T06:37:39;93837.00;;;16.10
10598;BMP180;5346;48.766;8.674;2022-09-03T06:40:13;93843.00;;;16.10
10598;BMP180;5346;48.766;8.674;2022-09-03T06:42:55;93832.00;;;16.20
10598;BMP180;5346;48.766;8.674;2022-09-03T06:45:41;93834.00;;;16.30
10598;BMP180;5346;48.766;8.674;2022-09-03T06:48:15;93841.00;;;16.40
10598;BMP180;5346;48.766;8.674;2022-09-03T06:51:14;93842.00;;;16.60
10598;BMP180;5346;48.766;8.674;2022-09-03T06:53:50;93839.00;;;16.80
10598;BMP180;5346;48.766;8.674;2022-09-03T06:56:25;93831.00;;;16.90
10598;BMP180;5346;48.766;8.674;2022-09-03T06:58:55;93837.00;;;17.00
10598;BMP180;5346;48.766;8.674;2022-09-03T07:01:26;93839.00;;;17.20
10598;BMP180;5346;48.766;8.674;2022-09-03T07:04:03;93837.00;;;17.30
10598;BMP180;5346;48.766;8.674;2022-09-03T07:06:34;93837.00;;;17.30
10598;BMP180;5346;48.766;8.674;2022-09-03T07:09:11;93831.00;;;17.40
10598;BMP180;5346;48.766;8.674;2022-09-03T07:11:39;93837.00;;;17.60
10598;BMP180;5346;48.766;8.674;2022-09-03T07:14:20;93829.00;;;17.80
10598;BMP180;5346;48.766;8.674;2022-09-03T07:16:49;93831.00;;;17.90
10598;BMP180;5346;48.766;8.674;2022-09-03T07:19:17;93836.00;;;17.90
10598;BMP180;5346;48.766;8.674;2022-09-03T07:21:57;93834.00;;;18.00
10598;BMP180;5346;48.766;8.674;2022-09-03T07:24:26;93831.00;;;18.10
10598;BMP180;5346;48.766;8.674;2022-09-03T07:27:01;93824.00;;;18.30
10598;BMP180;5346;48.766;8.674;2022-09-03T07:29:28;93827.00;;;18.60
10598;BMP180;5346;48.766;8.674;2022-09-03T07:31:56;93832.00;;;18.80
10598;BMP180;5346;48.766;8.674;2022-09-03T07:34:30;93837.00;;;18.90
10598;BMP180;5346;48.766;8.674;2022-09-03T07:36:58;93841.00;;;18.80
10598;BMP180;5346;48.766;8.674;2022-09-03T07:39:26;93842.00;;;18.60
10598;BMP180;5346;48.766;8.674;2022-09-03T07:42:00;93843.00;;;18.50
10598;BMP180;5346;48.766;8.674;2022-09-03T07:44:28;93846.00;;;18.40
10598;BMP180;5346;48.766;8.674;2022-09-03T07:46:57;93844.00;;;18.40
10598;BMP180;5346;48.766;8.674;2022-09-03T07:49:31;93844.00;;;18.50
10598;BMP180;5346;48.766;8.674;2022-09-03T07:51:58;93844.00;;;18.70
10598;BMP180;5346;48.766;8.674;2022-09-03T07:54:26;93845.00;;;18.90
10598;BMP180;5346;48.766;8.674;2022-09-03T07:57:00;93845.00;;;19.10
10598;BMP180;5346;48.766;8.674;2022-09-03T07:59:28;93849.00;;;19.10
10598;BMP180;5346;48.766;8.674;2022-09-03T08:01:56;93854.00;;;19.00
10598;BMP180;5346;48.766;8.674;2022-09-03T08:04:30;93858.00;;;18.50
10598;BMP180;5346;48.766;8.674;2022-09-03T08:07:00;93865.00;;;18.50
10598;BMP180;5346;48.766;8.674;2022-09-03T08:09:27;93865.00;;;18.20
10598;BMP180;5346;48.766;8.674;2022-09-03T08:12:02;93882.00;;;18.00
10598;BMP180;5346;48.766;8.674;2022-09-03T08:14:30;93876.00;;;18.10
10598;BMP180;5346;48.766;8.674;2022-09-03T08:16:58;93874.00;;;18.10
10598;BMP180;5346;48.766;8.674;2022-09-03T08:19:33;93875.00;;;18.40
10598;BMP180;5346;48.766;8.674;2022-09-03T08:22:14;93871.00;;;18.80
10598;BMP180;5346;48.766;8.674;2022-09-03T08:24:51;93868.00;;;19.30
10598;BMP180;5346;48.766;8.674;2022-09-03T08:27:20;93877.00;;;19.50
10598;BMP180;5346;48.766;8.674;2022-09-03T08:30:01;93873.00;;;19.80
10598;BMP180;5346;48.766;8.674;2022-09-03T08:32:30;93872.00;;;19.70
10598;BMP180;5346;48.766;8.674;2022-09-03T08:34:58;93872.00;;;19.50
10598;BMP180;5346;48.766;8.674;2022-09-03T08:37:33;93883.00;;;19.40
10598;BMP180;5346;48.766;8.674;2022-09-03T08:40:01;93877.00;;;19.50
10598;BMP180;5346;48.766;8.674;2022-09-03T08:42:44;93883.00;;;19.70
10598;BMP180;5346;48.766;8.674;2022-09-03T08:45:20;93874.00;;;19.80
10598;BMP180;5346;48.766;8.674;2022-09-03T08:48:04;93879.00;;;20.20
10598;BMP180;5346;48.766;8.674;2022-09-03T08:50:43;93884.00;;;21.30
10598;BMP180;5346;48.766;8.674;2022-09-03T08:53:48;93885.00;;;21.90
10598;BMP180;5346;48.766;8.674;2022-09-03T08:56:27;93891.00;;;22.30
10598;BMP180;5346;48.766;8.674;2022-09-03T08:58:59;93895.00;;;21.90
10598;BMP180;5346;48.766;8.674;2022-09-03T09:01:48;93893.00;;;21.50
10598;BMP180;5346;48.766;8.674;2022-09-03T09:10:15;93908.00;;;20.80
10598;BMP180;5346;48.766;8.674;2022-09-03T09:19:09;93889.00;;;21.80
10598;BMP180;5346;48.766;8.674;2022-09-03T09:22:03;93883.00;;;21.90
10598;BMP180;5346;48.766;8.674;2022-09-03T09:24:46;93891.00;;;21.90
10598;BMP180;5346;48.766;8.674;2022-09-03T09:27:16;93889.00;;;21.80
10598;BMP180;5346;48.766;8.674;2022-09-03T09:29:48;93882.00;;;21.80
10598;BMP180;5346;48.766;8.674;2022-09-03T09:32:22;93871.00;;;22.20
10598;BMP180;5346;48.766;8.674;2022-09-03T09:34:50;93873.00;;;22.80
10598;BMP180;5346;48.766;8.674;2022-09-03T09:37:19;93876.00;;;22.30
10598;BMP180;5346;48.766;8.674;2022-09-03T09:39:59;93893.00;;;22.10
10598;BMP180;5346;48.766;8.674;2022-09-03T09:42:27;93909.00;;;21.80
10598;BMP180;5346;48.766;8.674;2022-09-03T09:45:10;93919.00;;;21.50
10598;BMP180;5346;48.766;8.674;2022-09-03T09:47:39;93915.00;;;21.10
10598;BMP180;5346;48.766;8.674;2022-09-03T09:50:19;93911.00;;;21.00
10598;BMP180;5346;48.766;8.674;2022-09-03T09:53:11;93911.00;;;20.90
10598;BMP180;5346;48.766;8.674;2022-09-03T09:55:53;93909.00;;;21.20
10598;BMP180;5346;48.766;8.674;2022-09-03T09:58:25;93898.00;;;21.30
10598;BMP180;5346;48.766;8.674;2022-09-03T10:01:25;93892.00;;;22.80
10598;BMP180;5346;48.766;8.674;2022-09-03T10:03:58;93891.00;;;23.00
10598;BMP180;5346;48.766;8.674;2022-09-03T10:06:35;93893.00;;;23.10
10598;BMP180;5346;48.766;8.674;2022-09-03T10:09:23;93896.00;;;22.70
10598;BMP180;5346;48.766;8.674;2022-09-03T10:14:52;93896.00;;;22.10
10598;BMP180;5346;48.766;8.674;2022-09-03T10:17:47;93892.00;;;21.90
10598;BMP180;5346;48.766;8.674;2022-09-03T10:23:25;93880.00;;;23.80
10598;BMP180;5346;48.766;8.674;2022-09-03T10:26:05;93863.00;;;23.70
10598;BMP180;5346;48.766;8.674;2022-09-03T10:28:41;93868.00;;;24.00
10598;BMP180;5346;48.766;8.674;2022-09-03T10:40:01;93886.00;;;23.20
10598;BMP180;5346;48.766;8.674;2022-09-03T10:46:09;93888.00;;;22.50
10598;BMP180;5346;48.766;8.674;2022-09-03T10:52:23;93899.00;;;21.30
10598;BMP180;5346;48.766;8.674;2022-09-03T11:00:52;93901.00;;;21.10
10598;BMP180;5346;48.766;8.674;2022-09-03T11:03:41;93900.00;;;21.10
10598;BMP180;5346;48.766;8.674;2022-09-03T11:06:26;93906.00;;;20.80
10598;BMP180;5346;48.766;8.674;2022-09-03T11:09:14;93893.00;;;20.70
10598;BMP180;5346;48.766;8.674;2022-09-03T11:11:58;93897.00;;;20.80
10598;BMP180;5346;48.766;8.674;2022-09-03T11:14:41;93894.00;;;20.90
10598;BMP180;5346;48.766;8.674;2022-09-03T11:20:16;93889.00;;;20.80
10598;BMP180;5346;48.766;8.674;2022-09-03T11:23:09;93894.00;;;21.00
10598;BMP180;5346;48.766;8.674;2022-09-03T11:25:53;93893.00;;;21.20
10598;BMP180;5346;48.766;8.674;2022-09-03T11:31:06;93887.00;;;20.90
10598;BMP180;5346;48.766;8.674;2022-09-03T11:34:07;93899.00;;;20.80
10598;BMP180;5346;48.766;8.674;2022-09-03T11:37:06;93894.00;;;20.90
10598;BMP180;5346;48.766;8.674;2022-09-03T11:39:42;93905.00;;;20.70
10598;BMP180;5346;48.766;8.674;2022-09-03T11:42:27;93898.00;;;20.50
10598;BMP180;5346;48.766;8.674;2022-09-03T11:45:10;93899.00;;;20.40
10598;BMP180;5346;48.766;8.674;2022-09-03T11:47:46;93892.00;;;20.30
10598;BMP180;5346;48.766;8.674;2022-09-03T11:50:28;93900.00;;;20.20
10598;BMP180;5346;48.766;8.674;2022-09-03T11:53:35;93899.00;;;20.10
10598;BMP180;5346;48.766;8.674;2022-09-03T11:58:40;93902.00;;;20.00
10598;BMP180;5346;48.766;8.674;2022-09-03T12:01:15;93908.00;;;20.00
10598;BMP180;5346;48.766;8.674;2022-09-03T12:03:56;93909.00;;;20.10
10598;BMP180;5346;48.766;8.674;2022-09-03T12:16:11;93891.00;;;20.50
10598;BMP180;5346;48.766;8.674;2022-09-03T12:18:42;93896.00;;;20.70
10598;BMP180;5346;48.766;8.674;2022-09-03T12:21:19;93893.00;;;21.00
10598;BMP180;5346;48.766;8.674;2022-09-03T12:24:01;93888.00;;;21.20
10598;BMP180;5346;48.766;8.674;2022-09-03T12:26:40;93895.00;;;21.30
10598;BMP180;5346;48.766;8.674;2022-09-03T12:29:24;93898.00;;;21.30
10598;BMP180;5346;48.766;8.674;2022-09-03T12:32:07;93899.00;;;20.90
10598;BMP180;5346;48.766;8.674;2022-09-03T12:34:35;93904.00;;;20.50
10598;BMP180;5346;48.766;8.674;2022-09-03T12:37:24;93909.00;;;20.20
10598;BMP180;5346;48.766;8.674;2022-09-03T12:40:19;93908.00;;;20.20
10598;BMP180;5346;48.766;8.674;2022-09-03T12:43:15;93908.00;;;20.40
10598;BMP180;5346;48.766;8.674;2022-09-03T12:46:03;93914.00;;;20.40
10598;BMP180;5346;48.766;8.674;2022-09-03T12:48:45;93913.00;;;20.20
10598;BMP180;5346;48.766;8.674;2022-09-03T12:51:13;93940.00;;;19.90
10598;BMP180;5346;48.766;8.674;2022-09-03T12:54:10;93934.00;;;19.70
10598;BMP180;5346;48.766;8.674;2022-09-03T12:56:52;93933.00;;;19.50
10598;BMP180;5346;48.766;8.674;2022-09-03T12:59:32;93937.00;;;19.30
10598;BMP180;5346;48.766;8.674;2022-09-03T13:02:14;93937.00;;;19.20
10598;BMP180;5346;48.766;8.674;2022-09-03T13:04:50;93930.00;;;19.30
10598;BMP180;5346;48.766;8.674;2022-09-03T13:07:39;93936.00;;;19.60
10598;BMP180;5346;48.766;8.674;2022-09-03T13:10:28;93924.00;;;20.10
10598;BMP180;5346;48.766;8.674;2022-09-03T13:13:02;93926.00;;;21.20
10598;BMP180;5346;48.766;8.674;2022-09-03T13:15:39;93928.00;;;20.90
10598;BMP180;5346;48.766;8.674;2022-09-03T13:19:07;93916.00;;;20.80
10598;BMP180;5346;48.766;8.674;2022-09-03T13:21:17;93903.00;;;22.00
10598;BMP180;5346;48.766;8.674;2022-09-03T13:26:35;93900.00;;;23.10
10598;BMP180;5346;48.766;8.674;2022-09-03T13:32:02;93899.00;;;22.70
10598;BMP180;5346;48.766;8.674;2022-09-03T13:34:47;93898.00;;;22.30
10598;BMP180;5346;48.766;8.674;2022-09-03T13:40:02;93902.00;;;22.00
10598;BMP180;5346;48.766;8.674;2022-09-03T13:43:27;93894.00;;;21.10
10598;BMP180;5346;48.766;8.674;2022-09-03T13:46:22;93894.00;;;20.40
10598;BMP180;5346;48.766;8.674;2022-09-03T13:55:22;93894.00;;;19.90
10598;BMP180;5346;48.766;8.674;2022-09-03T13:57:58;93894.00;;;19.90
10598;BMP180;5346;48.766;8.674;2022-09-03T14:00:41;93896.00;;;20.00
10598;BMP180;5346;48.766;8.674;2022-09-03T14:03:35;93905.00;;;20.10
10598;BMP180;5346;48.766;8.674;2022-09-03T14:06:41;93901.00;;;20.20
10598;BMP180;5346;48.766;8.674;2022-09-03T14:12:20;93905.00;;;20.50
10598;BMP180;5346;48.766;8.674;2022-09-03T14:15:05;93910.00;;;20.30
10598;BMP180;5346;48.766;8.674;2022-09-03T14:18:12;93910.00;;;20.30
10598;BMP180;5346;48.766;8.674;2022-09-03T14:21:07;93922.00;;;20.00
10598;BMP180;5346;48.766;8.674;2022-09-03T14:24:12;93920.00;;;19.80
10598;BMP180;5346;48.766;8.674;2022-09-03T14:26:52;93930.00;;;19.60
10598;BMP180;5346;48.766;8.674;2022-09-03T14:29:29;93928.00;;;19.20
10598;BMP180;5346;48.766;8.674;2022-09-03T14:54:44;93927.00;;;20.60
10598;BMP180;5346;48.766;8.674;2022-09-03T14:57:47;93912.00;;;21.00
10598;BMP180;5346;48.766;8.674;2022-09-03T15:11:08;93915.00;;;21.20
10598;BMP180;5346;48.766;8.674;2022-09-03T15:14:21;93923.00;;;20.80
10598;BMP180;5346;48.766;8.674;2022-09-03T15:16:58;93909.00;;;21.30
10598;BMP180;5346;48.766;8.674;2022-09-03T15:34:11;93926.00;;;21.80
10598;BMP180;5346;48.766;8.674;2022-09-03T15:36:55;93939.00;;;21.50
10598;BMP180;5346;48.766;8.674;2022-09-03T15:39:35;93939.00;;;21.50
10598;BMP180;5346;48.766;8.674;2022-09-03T15:42:23;93939.00;;;21.00
10598;BMP180;5346;48.766;8.674;2022-09-03T15:45:00;93941.00;;;20.80
10598;BMP180;5346;48.766;8.674;2022-09-03T15:50:46;93946.00;;;20.70
10598;BMP180;5346;48.766;8.674;2022-09-03T15:56:17;93943.00;;;20.50
10598;BMP180;5346;48.766;8.674;2022-09-03T15:59:02;93943.00;;;20.60
10598;BMP180;5346;48.766;8.674;2022-09-03T16:04:39;93953.00;;;20.40
10598;BMP180;5346;48.766;8.674;2022-09-03T16:10:12;93956.00;;;20.30
10598;BMP180;5346;48.766;8.674;2022-09-03T16:16:03;93943.00;;;20.20
10598;BMP180;5346;48.766;8.674;2022-09-03T16:19:01;93949.00;;;20.30
10598;BMP180;5346;48.766;8.674;2022-09-03T16:36:34;93952.00;;;20.50
10598;BMP180;5346;48.766;8.674;2022-09-03T16:39:36;93951.00;;;20.40
10598;BMP180;5346;48.766;8.674;2022-09-03T16:53:15;93952.00;;;19.70
10598;BMP180;5346;48.766;8.674;2022-09-03T16:56:06;93960.00;;;19.40
10598;BMP180;5346;48.766;8.674;2022-09-03T17:04:39;93961.00;;;18.70
10598;BMP180;5346;48.766;8.674;2022-09-03T17:07:53;93953.00;;;18.60
10598;BMP180;5346;48.766;8.674;2022-09-03T17:16:44;93962.00;;;18.30
10598;BMP180;5346;48.766;8.674;2022-09-03T17:20:04;93968.00;;;18.10
10598;BMP180;5346;48.766;8.674;2022-09-03T17:23:24;93977.00;;;18.00
10598;BMP180;5346;48.766;8.674;2022-09-03T17:26:20;93969.00;;;17.80
10598;BMP180;5346;48.766;8.674;2022-09-03T17:29:17;93976.00;;;17.70
10598;BMP180;5346;48.766;8.674;2022-09-03T17:32:26;93978.00;;;17.70
10598;BMP180;5346;48.766;8.674;2022-09-03T17:41:25;93996.00;;;17.30
10598;BMP180;5346;48.766;8.674;2022-09-03T17:53:21;94011.00;;;16.90
10598;BMP180;5346;48.766;8.674;2022-09-03T17:56:18;94013.00;;;16.80
10598;BMP180;5346;48.766;8.674;2022-09-03T17:59:15;94011.00;;;16.80
10598;BMP180;5346;48.766;8.674;2022-09-03T18:02:02;94015.00;;;16.70
10598;BMP180;5346;48.766;8.674;2022-09-03T18:04:45;94010.00;;;16.60
10598;BMP180;5346;48.766;8.674;2022-09-03T18:07:40;94021.00;;;16.60
10598;BMP180;5346;48.766;8.674;2022-09-03T18:16:40;94034.00;;;16.30
10598;BMP180;5346;48.766;8.674;2022-09-03T18:22:33;94039.00;;;16.10
10598;BMP180;5346;48.766;8.674;2022-09-03T18:25:29;94044.00;;;16.00
10598;BMP180;5346;48.766;8.674;2022-09-03T18:28:20;94036.00;;;15.90
10598;BMP180;5346;48.766;8.674;2022-09-03T18:31:16;94048.00;;;15.80
10598;BMP180;5346;48.766;8.674;2022-09-03T18:34:04;94040.00;;;16.00
10598;BMP180;5346;48.766;8.674;2022-09-03T18:36:58;94040.00;;;15.80
10598;BMP180;5346;48.766;8.674;2022-09-03T18:39:45;94047.00;;;15.70
10598;BMP180;5346;48.766;8.674;2022-09-03T18:46:04;94046.00;;;15.80
10598;BMP180;5346;48.766;8.674;2022-09-03T18:53:10;94052.00;;;15.70
10598;BMP180;5346;48.766;8.674;2022-09-03T18:56:25;94058.00;;;15.70
10598;BMP180;5346;48.766;8.674;2022-09-03T19:20:57;94081.00;;;15.50
10598;BMP180;5346;48.766;8.674;2022-09-03T19:24:00;94082.00;;;15.60
10598;BMP180;5346;48.766;8.674;2022-09-03T19:46:50;94073.00;;;15.70
10598;BMP180;5346;48.766;8.674;2022-09-03T19:52:57;94084.00;;;15.70
10598;BMP180;5346;48.766;8.674;2022-09-03T19:56:02;94083.00;;;15.70
10598;BMP180;5346;48.766;8.674;2022-09-03T19:59:02;94084.00;;;15.60
10598;BMP180;5346;48.766;8.674;2022-09-03T20:01:49;94084.00;;;15.60
10598;BMP180;5346;48.766;8.674;2022-09-03T20:05:00;94078.00;;;15.50
10598;BMP180;5346;48.766;8.674;2022-09-03T20:07:50;94079.00;;;15.60
10598;BMP180;5346;48.766;8.674;2022-09-03T20:10:45;94080.00;;;15.50
10598;BMP180;5346;48.766;8.674;2022-09-03T20:13:16;94083.00;;;15.60
10598;BMP180;5346;48.766;8.674;2022-09-03T20:16:18;94083.00;;;15.60
10598;BMP180;5346;48.766;8.674;2022-09-03T20:22:10;94082.00;;;15.50
10598;BMP180;5346;48.766;8.674;2022-09-03T20:28:03;94085.00;;;15.30
10598;BMP180;5346;48.766;8.674;2022-09-03T20:30:52;94088.00;;;15.30
10598;BMP180;5346;48.766;8.674;2022-09-03T20:39:39;94101.00;;;15.60
10598;BMP180;5346;48.766;8.674;2022-09-03T20:42:28;94094.00;;;15.70
10598;BMP180;5346;48.766;8.674;2022-09-03T20:55:43;94099.00;;;15.90
10598;BMP180;5346;48.766;8.674;2022-09-03T20:58:28;94106.00;;;15.90
10598;BMP180;5346;48.766;8.674;2022-09-03T21:01:07;94101.00;;;15.90
10598;BMP180;5346;48.766;8.674;2022-09-03T21:06:54;94116.00;;;15.90
10598;BMP180;5346;48.766;8.674;2022-09-03T21:09:55;94113.00;;;15.80
10598;BMP180;5346;48.766;8.674;2022-09-03T21:18:40;94124.00;;;15.80
10598;BMP180;5346;48.766;8.674;2022-09-03T21:26:54;94130.00;;;15.90
10598;BMP180;5346;48.766;8.674;2022-09-03T21:29:45;94130.00;;;15.80
10598;BMP180;5346;48.766;8.674;2022-09-03T21:32:24;94136.00;;;15.70